Cebollita Spring, Valles Caldera, New Mexico Weather observations

Data are for 10 minute period ending at time listed.
 Day   Time   Solar   Ave.   Ave.  Ave.  Vector  Max.   Baro.   Total    
  of    of     Rad.   Air    Rel.  Wind   Wind   Wind  Press.  Precip.   
Year   Day            Temp.  Hum.  Speed  Dir.   Gust                    
2014   (MST)  Kw/m2    F      %     mph   deg.    mph    mb.     in.     
-------------------------------------------------------------------------
 108    0:30   0.00   25.9    74    1.5    66     2.4   99999.0    0.00 
 108    0:40   0.00   25.9    75    0.4    52     1.8   99999.0    0.00 
 108    0:50   0.00   25.9    75    1.8    64     3.6   99999.0    0.00 
 108    1:00   0.00   26.0    75    0.0    45     0.9   99999.0    0.00 
 108    1:10   0.00   25.9    75    1.2    58     3.0   99999.0    0.00 
 108    1:20   0.00   25.7    76    1.8    81     3.0   99999.0    0.00 
 108    1:30   0.00   25.9    76    1.1    54     2.4   99999.0    0.00 
 108    1:40   0.00   25.6    76    2.6    66     3.6   99999.0    0.00 
 108    1:50   0.00   25.4    77    2.4    68     3.0   99999.0    0.00 
 108    2:00   0.00   25.4    78    1.9    61     2.4   99999.0    0.00 
 108    2:10   0.00   25.4    78    0.1    62     1.2   99999.0    0.00 
 108    2:20   0.00   25.4    78    0.1    21     1.2   99999.0    0.00 
 108    2:30   0.00   25.4    79    1.2    59     3.6   99999.0    0.00 
 108    2:40   0.00   25.4    80    1.3    59     3.0   99999.0    0.00 
 108    2:50   0.00   25.5    79    1.7    54     2.4   99999.0    0.00 
 108    3:00   0.00   25.5    79    1.1    56     2.4   99999.0    0.00 
 108    3:10   0.00   25.4    80    1.3    54     2.4   99999.0    0.00 
 108    3:20   0.00   25.3    80    1.4    60     3.0   99999.0    0.00 
 108    3:30   0.00   25.4    80    2.1    54     3.0   99999.0    0.00 
 108    3:40   0.00   25.3    80    0.7    50     1.8   99999.0    0.00 
 108    3:50   0.00   25.2    81    2.5    64     3.6   99999.0    0.00 
 108    4:00   0.00   25.3    81    1.8    60     3.0   99999.0    0.00 
 108    4:10   0.00   25.2    81    1.2    53     2.4   99999.0    0.00 
 108    4:20   0.00   25.0    81    0.7    43     1.8   99999.0    0.00 
 108    4:30   0.00   24.8    82    1.4    50     2.4   99999.0    0.00 
 108    4:40   0.00   24.7    83    3.0    74     4.2   99999.0    0.00 
 108    4:50   0.00   25.1    82    1.7    39     2.4   99999.0    0.00 
 108    5:00   0.00   24.8    82    1.9    42     3.6   99999.0    0.00 
 108    5:10   0.00   24.8    83    1.8    56     3.6   99999.0    0.00 
 108    5:20   0.00   24.8    83    0.8    54     2.4   99999.0    0.00 
 108    5:30   0.00   24.7    83    1.2    53     3.0   99999.0    0.00 
 108    5:40   0.00   24.7    84    1.9    58     3.0   99999.0    0.00 
 108    5:50   0.00   24.7    84    1.3    59     3.0   99999.0    0.00 
 108    6:00   0.00   25.0    84    0.9    61     2.4   99999.0    0.00 
 108    6:10   0.00   25.8    84    0.6    59     1.8   99999.0    0.00 
 108    6:20   0.00   27.0    82    0.0   110     1.2   99999.0    0.00 
 108    6:30   0.00   28.5    82    0.0     0     0.0   99999.0    0.00 
 108    6:40   0.00   30.6    78    0.0   329     1.2   99999.0    0.00 
 108    6:50   0.06   32.1    76    0.3   148     3.0   99999.0    0.00 
 108    7:00   0.02   35.5    70    2.1   153     6.0   99999.0    0.00 
 108    7:10   0.00   41.2    55    1.9   172     5.4   99999.0    0.00 
 108    7:20   0.04   46.2    44    2.9   126     6.0   99999.0    0.00 
 108    7:30   0.00   48.3    39    3.0   154     5.4   99999.0    0.00 
 108    7:40   0.01   49.4    36    3.4   135     8.4   99999.0    0.00 
 108    7:50   0.00   49.6    36    3.3   120     7.8   99999.0    0.00 
 108    8:00   0.00   50.3    34    4.2   167     8.4   99999.0    0.00 
 108    8:10   0.00   50.7    33    4.1   147     7.8   99999.0    0.00 
 108    8:20   0.00   51.7    32    4.0   151     7.8   99999.0    0.00 
 108    8:30   0.17   52.1    32    4.6   146     7.8   99999.0    0.00 
 108    8:40   0.72   52.7    31    4.9   133    10.2   99999.0    0.00 
 108    8:50   0.70   53.2    30    4.8   154     9.0   99999.0    0.00 
 108    9:00   0.00   53.7    29    4.2   168     6.6   99999.0    0.00 
 108    9:10   0.00   53.7    29    3.3   177     6.0   99999.0    0.00 
 108    9:20   0.00   55.5    28    3.9   115     7.8   99999.0    0.00 
 108    9:30   0.00   56.4    28    4.6   126    10.2   99999.0    0.00 
 108    9:40   0.00   57.0    27    4.1   116     8.4   99999.0    0.00 
 108    9:50   0.00   57.8    26    3.4   140     6.6   99999.0    0.00 
 108   10:00   0.00   57.4    26    4.1   184     8.4   99999.0    0.00 
 108   10:10   0.00   58.0    26    4.2   160    10.8   99999.0    0.00 
 108   10:20   0.00   58.7    25    4.5   162     8.4   99999.0    0.00 
 108   10:30   0.00   58.8    25    3.6    98     8.4   99999.0    0.00 
 108   10:40   0.13   60.4    23    4.3   160    11.9   99999.0    0.00 
 108   10:50   0.00   61.4    22    4.1   183     8.1   99999.0    0.00 
 108   11:00   0.00   59.8    23    5.1   170    11.3   99999.0    0.00 
 108   11:10   0.00   61.2    22    4.9   124    10.2   99999.0    0.00 
 108   11:20   0.00   62.1    22    5.9   118    11.3   99999.0    0.00 
 108   11:30   0.03   62.7    21    5.1   155    10.2   99999.0    0.00 
 108   11:40   0.10   62.7    22    5.9   168    13.7   99999.0    0.00 
 108   11:50   0.18   61.4    22    5.9   160    12.5   99999.0    0.00 
 108   12:00   0.25   61.9    22    4.0   157     9.6   99999.0    0.00 
 108   12:10   0.42   63.0    21    5.4   185    10.2   99999.0    0.00 
 108   12:20   0.48   63.6    21    6.8   182    13.1   99999.0    0.01 
 108   12:30   0.51   63.5    21    6.0   169    13.1   99999.0    0.00 
 108   12:40   0.53   62.9    21    6.5   177    14.9   99999.0    0.00 
 108   12:50   0.45   60.7    22    6.4   142    15.5   99999.0    0.00 
 108   13:00   0.05   59.4    23    5.8   151    12.5   99999.0    0.00 
 108   13:10   0.47   60.0    22    5.5   141    10.8   99999.0    0.00 
 108   13:20   0.17   59.7    22    5.3   137    10.8   99999.0    0.00 
 108   13:30   0.37   61.3    21    5.4   159    11.3   99999.0    0.00 
 108   13:40   0.47   62.8    19    6.0   144    12.5   99999.0    0.00 
 108   13:50   0.58   62.9    19    6.5   131    12.5   99999.0    0.00 
 108   14:00   0.48   61.8    20    5.8   171    12.5   99999.0    0.00 
 108   14:10   0.24   60.3    20    5.5   144    11.9   99999.0    0.00 
 108   14:20   0.17   59.8    21    4.7   188    10.2   99999.0    0.00 
 108   14:30   100.00  99999.0   99999  99999.0   99999   99999.0   99999.0   99999.00 
 108   14:40   100.00  99999.0   99999  99999.0   99999   99999.0   99999.0   99999.00 
 108   14:50   100.00  99999.0   99999  99999.0   99999   99999.0   99999.0   99999.00 
 108   15:00   100.00  99999.0   99999  99999.0   99999   99999.0   99999.0   99999.00 
 108   15:10   100.00  99999.0   99999  99999.0   99999   99999.0   99999.0   99999.00 
 108   15:20   100.00  99999.0   99999  99999.0   99999   99999.0   99999.0   99999.00 
 108   15:30   0.74   64.5    15    6.7   192    15.5   99999.0    0.00 
 108   15:40   0.67   64.3    15    6.2   169    15.5   99999.0    0.00 
 108   15:50   0.62   64.2    15    5.9   165    10.8   99999.0    0.00 
 108   16:00   0.59   64.6    16    5.4   181     9.6   99999.0    0.00 
 108   16:10   0.55   64.1    16    7.4   190    17.3   99999.0    0.00 
 108   16:20   0.52   63.3    16    6.7   196    13.7   99999.0    0.00 
 108   16:30   0.47   63.8    16    5.5   180    13.7   99999.0    0.00 
 108   16:40   0.43   63.2    17    6.9   189    14.3   99999.0    0.00 
 108   16:50   0.34   62.7    17    6.2   168    11.9   99999.0    0.00 
 108   17:00   0.27   62.2    18    6.0   189    13.1   99999.0    0.00 
 108   17:10   0.18   61.0    19    4.8   184    11.3   99999.0    0.00 
 108   17:20   0.14   60.2    19    4.5   182    10.8   99999.0    0.00 
 108   17:30   0.06   59.2    19    4.0   177    11.9   99999.0    0.01 
 108   17:40   0.05   58.2    20    3.9   171     9.0   99999.0    0.00 
 108   17:50   0.04   57.3    21    4.5   158     9.6   99999.0    0.00 
 108   18:00   0.04   56.8    22    3.6   169    10.8   99999.0    0.00 
 108   18:10   0.03   56.6    22    3.9   171     9.6   99999.0    0.00 
 108   18:20   0.03   56.2    23    3.1   166     9.0   99999.0    0.00 
 108   18:30   0.00   55.9    24    5.4   172    11.3   99999.0    0.00 
 108   18:40   0.00   56.0    24    5.3   172    11.3   99999.0    0.00 
 108   18:50   0.00   55.7    24    6.1   165    13.7   99999.0    0.00 
 108   19:00   0.00   55.8    24    5.6   167    13.1   99999.0    0.00 
 108   19:10   0.00   55.6    24    5.4   169    10.8   99999.0    0.00 
 108   19:20   0.00   55.5    24    5.0   167    10.2   99999.0    0.00 
 108   19:30   0.00   55.3    25    4.2   173     9.6   99999.0    0.00 
 108   19:40   0.00   55.0    26    5.2   212    13.1   99999.0    0.00 
 108   19:50   0.00   54.1    30    4.5   225    11.3   99999.0    0.00 
 108   20:00   0.00   54.0    29    4.5   191    13.1   99999.0    0.00 
 108   20:10   0.00   53.7    30    1.5   182     4.8   99999.0    0.00 
 108   20:20   0.00   52.9    30    1.4   188     3.6   99999.0    0.00 
 108   20:30   0.00   52.0    32    4.5   244    11.3   99999.0    0.00 
 108   20:40   0.00   51.6    36    3.9   251     7.2   99999.0    0.00 
 108   20:50   0.00   51.3    37    5.6   242    11.9   99999.0    0.00 
 108   21:00   0.00   51.2    38    6.1   255    10.8   99999.0    0.00 
 108   21:10   0.00   50.6    38    5.3   252     9.6   99999.0    0.00 
 108   21:20   0.00   50.4    39    6.4   234    16.7   99999.0    0.00 
 108   21:30   0.00   50.0    39    6.9   245    14.9   99999.0    0.00 
 108   21:40   0.00   50.0    39    8.4   235    16.7   99999.0    0.00 
 108   21:50   0.00   49.8    40    9.2   242    16.1   99999.0    0.00 
 108   22:00   0.00   49.4    42    8.7   253    20.3   99999.0    0.00 
 108   22:10   0.00   48.3    49    9.2   236    20.9   99999.0    0.00 
 108   22:20   0.00   47.0    54    8.4   254    16.1   99999.0    0.00 
 108   22:30   0.00   46.4    56    6.3   264    16.1   99999.0    0.00 
 108   22:40   0.00   46.2    57    6.8   252    12.5   99999.0    0.00 
 108   22:50   0.00   46.1    58    7.8   231    16.7   99999.0    0.00 
 108   23:00   0.00   44.9    68    6.7   200    15.5   99999.0    0.00 
 108   23:10   0.00   42.6    81    2.9   177    10.2   99999.0    0.00 
 108   23:20   0.00   41.5    88    0.9    77     2.4   99999.0    0.00 
 108   23:30   0.00   40.9    92    1.3     8     3.0   99999.0    0.00 
 108   23:40   0.00   40.7    93    2.5    30     4.2   99999.0    0.00 
 108   23:50   0.00   40.7    94    2.1    42     4.2   99999.0    0.00 
 109    0:00   0.00   40.6    94    2.2    15     4.8   99999.0    0.00 
 109    0:10   0.00   40.6    94    1.4    38     3.0   99999.0    0.00 
 109    0:20   0.00   40.4    94    0.6    58     3.0   99999.0    0.00 

Return to Cebollita Spring, Valles Caldera graphs page.


Western Regional Climate Center,wrcc@dri.edu